Porto current weather conditions

sailwx.info

Wind from 150 at 3 knots

Air temperature 16.0° C
Dewpoint 12.0° C

Last reported at 2014-Oct-31 07:30 UTC.
Time now 2014-Oct-31 09:14 UTC

Location: N 41°15' W 008°41'.
View on Google Maps.

See reports from other nearby stations

  
Tides and Currents Weather Stations Pressure Air Temp Water Temp Dewpoint Dewpoint Depression Visibility Wind Speed Wind Dir Waves Ship Positions
date/time (UTC)wind fromknots sea level pressurealtimeterstation pressurevisibilityair tempwater tempwave heightnotes
2014-Oct-31 08:30 130 3 17.0
2014-Oct-31 08:00 17.0
2014-Oct-31 07:30 150 3 16.0
2014-Oct-31 07:00 120 6 16.0
2014-Oct-31 06:30 120 6 15.0
2014-Oct-31 06:00 140 2 15.0
2014-Oct-31 05:30 130 4 16.0
2014-Oct-31 05:00 130 6 16.0
2014-Oct-31 04:30 130 6 16.0
2014-Oct-31 04:00 130 4 16.0
2014-Oct-31 03:30 120 7 16.0
2014-Oct-31 03:00 130 5 16.0
2014-Oct-31 02:30 190 3 17.0
2014-Oct-31 02:00 130 5 17.0
2014-Oct-31 01:30 120 8 18.0
2014-Oct-31 01:00 120 6 18.0
2014-Oct-31 00:39 130 3 18.0
2014-Oct-31 00:30 16.0
2014-Oct-31 00:00 15.0
2014-Oct-30 23:30 110 5 17.0
2014-Oct-30 23:00 120 7 17.0
2014-Oct-30 22:30 120 6 17.0
2014-Oct-30 22:00 130 6 18.0
2014-Oct-30 21:30 120 4 18.0
2014-Oct-30 21:12 110 4 18.0
2014-Oct-30 21:00 16.0
2014-Oct-30 20:30 130 4 19.0
2014-Oct-30 20:00 130 5 18.0
2014-Oct-30 19:30 18.0
2014-Oct-30 19:00 18.0
2014-Oct-30 18:30 20.0
2014-Oct-30 18:00 19.0
2014-Oct-30 17:30 21.0
2014-Oct-30 17:00 24.0
2014-Oct-30 16:30 25.0
2014-Oct-30 16:00 26.0
2014-Oct-30 15:30 270 3 26.0
2014-Oct-30 15:00 260 4 26.0
2014-Oct-30 14:30 240 5 26.0
2014-Oct-30 14:00 250 5 26.0
2014-Oct-30 13:30 27.0
2014-Oct-30 13:00 180 4 27.0
2014-Oct-30 12:30 130 6 26.0
2014-Oct-30 12:00 120 7 26.0
2014-Oct-30 11:30 110 9 24.0
2014-Oct-30 11:00 110 9 24.0
2014-Oct-30 10:30 110 11 22.0
2014-Oct-30 10:00 120 10 21.0
2014-Oct-30 09:30 120 10 20.0
2014-Oct-30 09:00 110 11 19.0
2014-Oct-30 08:30 120 11 18.0
2014-Oct-30 08:00 110 7 17.0
2014-Oct-30 07:30 110 8 16.0
2014-Oct-30 07:00 120 10 16.0
2014-Oct-30 06:30 120 7 16.0
2014-Oct-30 06:00 120 7 15.0
2014-Oct-30 05:30 110 5 16.0
2014-Oct-30 05:00 16.0
2014-Oct-30 04:30 16.0
2014-Oct-30 04:00 100 7 17.0
2014-Oct-30 03:30 16.0
2014-Oct-30 03:00 16.0
2014-Oct-30 02:30 17.0
2014-Oct-30 02:00 4.916.0
2014-Oct-30 01:30 4.916.0
2014-Oct-30 01:00 110 5 4.916.0
2014-Oct-30 00:30 4.916.0
2014-Oct-30 00:00 4.916.0
2014-Oct-29 23:30 4.915.0
2014-Oct-29 23:00 16.0
2014-Oct-29 22:30 010 3 4.915.0
2014-Oct-29 22:00 030 3 15.0
2014-Oct-29 21:30 040 3 17.0
2014-Oct-29 21:00 16.0
2014-Oct-29 20:30 100 3 18.0
2014-Oct-29 20:00 110 5 17.0
2014-Oct-29 19:30 110 3 17.0
2014-Oct-29 19:00 18.0
2014-Oct-29 18:30 18.0
2014-Oct-29 18:00 19.0
2014-Oct-29 17:30 20.0
2014-Oct-29 17:00 230 3 21.0
2014-Oct-29 16:30 230 3 22.0
2014-Oct-29 16:00 240 5 22.0
2014-Oct-29 15:30 260 3 23.0
2014-Oct-29 15:00 280 3 24.0
2014-Oct-29 14:30 270 4 24.0
2014-Oct-29 14:00 250 3 25.0
2014-Oct-29 13:30 290 3 24.0
2014-Oct-29 13:00 24.0
2014-Oct-29 12:30 280 3 23.0
2014-Oct-29 12:00 230 5 23.0
2014-Oct-29 11:30 200 6 23.0
2014-Oct-29 11:00 200 5 23.0
2014-Oct-29 10:30 180 4 23.0
2014-Oct-29 10:00 110 10 22.0
2014-Oct-29 09:30 110 10 21.0
2014-Oct-29 09:00 100 10 20.0